sensor_id;sensor_type;location;lat;lon;timestamp;P1;durP1;ratioP1;P2;durP2;ratioP2
26014;SDS011;13793;55.388;37.844;2024-02-21T00:02:07;33.00;;;18.63;;
26014;SDS011;13793;55.388;37.844;2024-02-21T00:04:38;35.77;;;20.17;;
26014;SDS011;13793;55.388;37.844;2024-02-21T00:07:08;33.40;;;18.00;;
26014;SDS011;13793;55.388;37.844;2024-02-21T00:09:39;35.03;;;18.73;;
26014;SDS011;13793;55.388;37.844;2024-02-21T00:12:10;31.93;;;19.53;;
26014;SDS011;13793;55.388;37.844;2024-02-21T00:14:42;35.40;;;19.27;;
26014;SDS011;13793;55.388;37.844;2024-02-21T00:17:13;35.70;;;19.00;;
26014;SDS011;13793;55.388;37.844;2024-02-21T00:19:44;29.77;;;17.73;;
26014;SDS011;13793;55.388;37.844;2024-02-21T00:22:15;33.17;;;18.50;;
26014;SDS011;13793;55.388;37.844;2024-02-21T00:24:47;34.77;;;19.20;;
26014;SDS011;13793;55.388;37.844;2024-02-21T00:27:18;34.83;;;19.60;;
26014;SDS011;13793;55.388;37.844;2024-02-21T00:29:48;33.20;;;19.17;;
26014;SDS011;13793;55.388;37.844;2024-02-21T00:32:19;35.43;;;19.07;;
26014;SDS011;13793;55.388;37.844;2024-02-21T00:34:50;33.87;;;18.53;;
26014;SDS011;13793;55.388;37.844;2024-02-21T00:37:21;31.50;;;18.90;;
26014;SDS011;13793;55.388;37.844;2024-02-21T00:39:51;39.13;;;20.60;;
26014;SDS011;13793;55.388;37.844;2024-02-21T00:42:23;34.73;;;19.77;;
26014;SDS011;13793;55.388;37.844;2024-02-21T00:44:54;33.57;;;18.93;;
26014;SDS011;13793;55.388;37.844;2024-02-21T00:47:24;31.67;;;18.03;;
26014;SDS011;13793;55.388;37.844;2024-02-21T00:49:55;34.90;;;18.03;;
26014;SDS011;13793;55.388;37.844;2024-02-21T00:52:26;33.80;;;18.97;;
26014;SDS011;13793;55.388;37.844;2024-02-21T00:54:57;33.97;;;19.20;;
26014;SDS011;13793;55.388;37.844;2024-02-21T00:57:29;32.17;;;19.30;;
26014;SDS011;13793;55.388;37.844;2024-02-21T01:00:01;32.80;;;19.40;;
26014;SDS011;13793;55.388;37.844;2024-02-21T01:02:32;32.13;;;18.60;;
26014;SDS011;13793;55.388;37.844;2024-02-21T01:05:03;35.67;;;18.90;;
26014;SDS011;13793;55.388;37.844;2024-02-21T01:07:34;32.13;;;18.97;;
26014;SDS011;13793;55.388;37.844;2024-02-21T01:10:05;31.47;;;18.20;;
26014;SDS011;13793;55.388;37.844;2024-02-21T01:12:37;31.93;;;18.73;;
26014;SDS011;13793;55.388;37.844;2024-02-21T01:15:07;30.87;;;18.30;;
26014;SDS011;13793;55.388;37.844;2024-02-21T01:17:39;31.27;;;18.63;;
26014;SDS011;13793;55.388;37.844;2024-02-21T01:20:13;31.50;;;18.93;;
26014;SDS011;13793;55.388;37.844;2024-02-21T01:22:45;33.87;;;18.57;;
26014;SDS011;13793;55.388;37.844;2024-02-21T01:25:16;32.77;;;18.00;;
26014;SDS011;13793;55.388;37.844;2024-02-21T01:27:47;30.77;;;17.97;;
26014;SDS011;13793;55.388;37.844;2024-02-21T01:30:18;34.40;;;19.27;;
26014;SDS011;13793;55.388;37.844;2024-02-21T01:32:49;35.97;;;18.93;;
26014;SDS011;13793;55.388;37.844;2024-02-21T01:35:20;30.13;;;18.30;;
26014;SDS011;13793;55.388;37.844;2024-02-21T01:37:51;30.47;;;18.30;;
26014;SDS011;13793;55.388;37.844;2024-02-21T01:40:22;35.17;;;18.80;;
26014;SDS011;13793;55.388;37.844;2024-02-21T01:42:56;31.67;;;18.33;;
26014;SDS011;13793;55.388;37.844;2024-02-21T01:45:27;32.53;;;18.00;;
26014;SDS011;13793;55.388;37.844;2024-02-21T01:47:58;35.27;;;19.33;;
26014;SDS011;13793;55.388;37.844;2024-02-21T01:50:29;33.27;;;18.80;;
26014;SDS011;13793;55.388;37.844;2024-02-21T01:53:00;29.47;;;18.10;;
26014;SDS011;13793;55.388;37.844;2024-02-21T01:55:31;34.40;;;18.40;;
26014;SDS011;13793;55.388;37.844;2024-02-21T01:58:02;34.27;;;18.00;;
26014;SDS011;13793;55.388;37.844;2024-02-21T02:00:33;34.93;;;18.97;;
26014;SDS011;13793;55.388;37.844;2024-02-21T02:03:04;36.97;;;19.70;;
26014;SDS011;13793;55.388;37.844;2024-02-21T02:05:35;35.67;;;19.07;;
26014;SDS011;13793;55.388;37.844;2024-02-21T02:08:06;35.50;;;19.73;;
26014;SDS011;13793;55.388;37.844;2024-02-21T02:10:37;34.30;;;19.00;;
26014;SDS011;13793;55.388;37.844;2024-02-21T02:13:09;33.27;;;18.83;;
26014;SDS011;13793;55.388;37.844;2024-02-21T02:18:13;32.60;;;18.57;;
26014;SDS011;13793;55.388;37.844;2024-02-21T02:20:45;34.27;;;17.77;;
26014;SDS011;13793;55.388;37.844;2024-02-21T02:23:25;32.37;;;18.37;;
26014;SDS011;13793;55.388;37.844;2024-02-21T02:26:01;32.70;;;18.83;;
26014;SDS011;13793;55.388;37.844;2024-02-21T02:28:32;31.80;;;18.60;;
26014;SDS011;13793;55.388;37.844;2024-02-21T02:31:03;31.00;;;18.43;;
26014;SDS011;13793;55.388;37.844;2024-02-21T02:33:34;33.90;;;19.00;;
26014;SDS011;13793;55.388;37.844;2024-02-21T02:36:05;31.60;;;17.70;;
26014;SDS011;13793;55.388;37.844;2024-02-21T02:38:37;36.13;;;19.00;;
26014;SDS011;13793;55.388;37.844;2024-02-21T02:41:07;33.13;;;17.80;;
26014;SDS011;13793;55.388;37.844;2024-02-21T02:43:38;33.57;;;18.37;;
26014;SDS011;13793;55.388;37.844;2024-02-21T02:46:08;31.83;;;17.97;;
26014;SDS011;13793;55.388;37.844;2024-02-21T02:48:39;30.83;;;18.27;;
26014;SDS011;13793;55.388;37.844;2024-02-21T02:51:10;33.50;;;18.17;;
26014;SDS011;13793;55.388;37.844;2024-02-21T02:53:40;32.67;;;18.47;;
26014;SDS011;13793;55.388;37.844;2024-02-21T02:56:15;34.63;;;19.43;;
26014;SDS011;13793;55.388;37.844;2024-02-21T02:58:45;35.07;;;19.33;;
26014;SDS011;13793;55.388;37.844;2024-02-21T03:01:16;30.43;;;17.87;;
26014;SDS011;13793;55.388;37.844;2024-02-21T03:03:47;30.80;;;18.53;;
26014;SDS011;13793;55.388;37.844;2024-02-21T03:06:18;34.83;;;18.60;;
26014;SDS011;13793;55.388;37.844;2024-02-21T03:08:48;32.73;;;18.87;;
26014;SDS011;13793;55.388;37.844;2024-02-21T03:11:20;33.37;;;18.83;;
26014;SDS011;13793;55.388;37.844;2024-02-21T03:13:53;34.63;;;18.60;;
26014;SDS011;13793;55.388;37.844;2024-02-21T03:16:25;33.67;;;19.17;;
26014;SDS011;13793;55.388;37.844;2024-02-21T03:18:55;35.03;;;19.80;;
26014;SDS011;13793;55.388;37.844;2024-02-21T03:21:26;32.30;;;18.50;;
26014;SDS011;13793;55.388;37.844;2024-02-21T03:23:57;30.70;;;19.00;;
26014;SDS011;13793;55.388;37.844;2024-02-21T03:26:28;31.00;;;19.47;;
26014;SDS011;13793;55.388;37.844;2024-02-21T03:28:58;31.87;;;18.23;;
26014;SDS011;13793;55.388;37.844;2024-02-21T03:31:29;31.23;;;18.60;;
26014;SDS011;13793;55.388;37.844;2024-02-21T03:34:00;32.53;;;19.90;;
26014;SDS011;13793;55.388;37.844;2024-02-21T03:36:31;30.77;;;19.60;;
26014;SDS011;13793;55.388;37.844;2024-02-21T03:39:02;36.13;;;19.60;;
26014;SDS011;13793;55.388;37.844;2024-02-21T03:41:33;32.20;;;18.37;;
26014;SDS011;13793;55.388;37.844;2024-02-21T03:44:04;34.70;;;19.97;;
26014;SDS011;13793;55.388;37.844;2024-02-21T03:46:34;33.93;;;18.87;;
26014;SDS011;13793;55.388;37.844;2024-02-21T03:49:05;33.50;;;19.00;;
26014;SDS011;13793;55.388;37.844;2024-02-21T03:51:36;37.00;;;19.77;;
26014;SDS011;13793;55.388;37.844;2024-02-21T03:54:07;34.07;;;20.43;;
26014;SDS011;13793;55.388;37.844;2024-02-21T03:56:37;35.03;;;20.10;;
26014;SDS011;13793;55.388;37.844;2024-02-21T03:59:12;35.00;;;19.60;;
26014;SDS011;13793;55.388;37.844;2024-02-21T04:01:43;34.13;;;19.30;;
26014;SDS011;13793;55.388;37.844;2024-02-21T04:04:14;33.67;;;19.10;;
26014;SDS011;13793;55.388;37.844;2024-02-21T04:06:48;37.43;;;20.03;;
26014;SDS011;13793;55.388;37.844;2024-02-21T04:09:18;34.50;;;19.57;;
26014;SDS011;13793;55.388;37.844;2024-02-21T04:11:49;35.73;;;19.93;;
26014;SDS011;13793;55.388;37.844;2024-02-21T04:14:21;34.43;;;20.13;;
26014;SDS011;13793;55.388;37.844;2024-02-21T04:16:51;37.60;;;20.67;;
26014;SDS011;13793;55.388;37.844;2024-02-21T04:19:22;36.53;;;20.87;;
26014;SDS011;13793;55.388;37.844;2024-02-21T04:21:53;36.20;;;20.10;;
26014;SDS011;13793;55.388;37.844;2024-02-21T04:24:23;36.57;;;20.03;;
26014;SDS011;13793;55.388;37.844;2024-02-21T04:26:54;36.67;;;20.83;;
26014;SDS011;13793;55.388;37.844;2024-02-21T04:29:25;33.93;;;20.97;;
26014;SDS011;13793;55.388;37.844;2024-02-21T04:31:56;36.67;;;20.80;;
26014;SDS011;13793;55.388;37.844;2024-02-21T04:34:27;34.73;;;20.80;;
26014;SDS011;13793;55.388;37.844;2024-02-21T04:36:58;38.03;;;21.80;;
26014;SDS011;13793;55.388;37.844;2024-02-21T04:39:28;40.00;;;21.00;;
26014;SDS011;13793;55.388;37.844;2024-02-21T04:41:59;37.00;;;21.23;;
26014;SDS011;13793;55.388;37.844;2024-02-21T04:44:30;38.33;;;21.43;;
26014;SDS011;13793;55.388;37.844;2024-02-21T04:47:00;37.47;;;21.20;;
26014;SDS011;13793;55.388;37.844;2024-02-21T04:49:32;34.73;;;20.67;;
26014;SDS011;13793;55.388;37.844;2024-02-21T04:52:03;34.70;;;20.60;;
26014;SDS011;13793;55.388;37.844;2024-02-21T04:54:34;36.63;;;21.00;;
26014;SDS011;13793;55.388;37.844;2024-02-21T04:57:05;37.53;;;21.43;;
26014;SDS011;13793;55.388;37.844;2024-02-21T04:59:36;36.73;;;21.47;;
26014;SDS011;13793;55.388;37.844;2024-02-21T05:02:07;33.93;;;20.17;;
26014;SDS011;13793;55.388;37.844;2024-02-21T05:04:37;37.80;;;20.97;;
26014;SDS011;13793;55.388;37.844;2024-02-21T05:07:09;37.83;;;21.37;;
26014;SDS011;13793;55.388;37.844;2024-02-21T05:09:41;37.37;;;20.93;;
26014;SDS011;13793;55.388;37.844;2024-02-21T05:12:12;36.47;;;20.77;;
26014;SDS011;13793;55.388;37.844;2024-02-21T05:14:43;36.90;;;20.30;;
26014;SDS011;13793;55.388;37.844;2024-02-21T05:17:15;40.40;;;21.60;;
26014;SDS011;13793;55.388;37.844;2024-02-21T05:19:46;37.97;;;21.30;;
26014;SDS011;13793;55.388;37.844;2024-02-21T05:22:16;36.23;;;21.07;;
26014;SDS011;13793;55.388;37.844;2024-02-21T05:24:50;37.00;;;20.97;;
26014;SDS011;13793;55.388;37.844;2024-02-21T05:27:23;39.57;;;22.13;;
26014;SDS011;13793;55.388;37.844;2024-02-21T05:29:55;34.43;;;20.40;;
26014;SDS011;13793;55.388;37.844;2024-02-21T05:32:26;37.37;;;20.90;;
26014;SDS011;13793;55.388;37.844;2024-02-21T05:34:58;36.67;;;21.07;;
26014;SDS011;13793;55.388;37.844;2024-02-21T05:37:29;39.43;;;21.27;;
26014;SDS011;13793;55.388;37.844;2024-02-21T05:40:01;37.70;;;20.87;;
26014;SDS011;13793;55.388;37.844;2024-02-21T05:42:31;37.33;;;21.00;;
26014;SDS011;13793;55.388;37.844;2024-02-21T05:45:02;36.33;;;21.23;;
26014;SDS011;13793;55.388;37.844;2024-02-21T05:47:34;34.03;;;20.10;;
26014;SDS011;13793;55.388;37.844;2024-02-21T05:50:05;37.17;;;20.30;;
26014;SDS011;13793;55.388;37.844;2024-02-21T05:52:35;33.83;;;19.60;;
26014;SDS011;13793;55.388;37.844;2024-02-21T05:55:06;34.80;;;19.97;;
26014;SDS011;13793;55.388;37.844;2024-02-21T05:57:41;31.67;;;18.93;;
26014;SDS011;13793;55.388;37.844;2024-02-21T06:00:12;35.53;;;19.27;;
26014;SDS011;13793;55.388;37.844;2024-02-21T06:02:44;35.93;;;19.80;;
26014;SDS011;13793;55.388;37.844;2024-02-21T06:05:14;36.07;;;19.63;;
26014;SDS011;13793;55.388;37.844;2024-02-21T06:07:45;34.47;;;19.67;;
26014;SDS011;13793;55.388;37.844;2024-02-21T06:10:16;33.93;;;19.90;;
26014;SDS011;13793;55.388;37.844;2024-02-21T06:12:47;34.80;;;19.47;;
26014;SDS011;13793;55.388;37.844;2024-02-21T06:15:18;34.97;;;20.00;;
26014;SDS011;13793;55.388;37.844;2024-02-21T06:17:49;36.00;;;20.27;;
26014;SDS011;13793;55.388;37.844;2024-02-21T06:20:20;36.50;;;19.50;;
26014;SDS011;13793;55.388;37.844;2024-02-21T06:22:51;35.13;;;20.50;;
26014;SDS011;13793;55.388;37.844;2024-02-21T06:25:22;33.40;;;19.33;;
26014;SDS011;13793;55.388;37.844;2024-02-21T06:27:53;34.23;;;19.23;;
26014;SDS011;13793;55.388;37.844;2024-02-21T06:30:24;36.27;;;19.97;;
26014;SDS011;13793;55.388;37.844;2024-02-21T06:32:55;35.20;;;19.10;;
26014;SDS011;13793;55.388;37.844;2024-02-21T06:35:26;32.87;;;19.07;;
26014;SDS011;13793;55.388;37.844;2024-02-21T06:37:57;35.43;;;19.77;;
26014;SDS011;13793;55.388;37.844;2024-02-21T06:40:27;33.23;;;18.90;;
26014;SDS011;13793;55.388;37.844;2024-02-21T06:43:00;33.00;;;18.73;;
26014;SDS011;13793;55.388;37.844;2024-02-21T06:45:31;32.10;;;18.67;;
26014;SDS011;13793;55.388;37.844;2024-02-21T06:48:02;31.10;;;18.13;;
26014;SDS011;13793;55.388;37.844;2024-02-21T06:50:33;32.67;;;18.80;;
26014;SDS011;13793;55.388;37.844;2024-02-21T06:53:04;28.63;;;16.70;;
26014;SDS011;13793;55.388;37.844;2024-02-21T06:55:35;29.63;;;17.37;;
26014;SDS011;13793;55.388;37.844;2024-02-21T06:58:06;29.83;;;18.20;;
26014;SDS011;13793;55.388;37.844;2024-02-21T07:00:39;30.20;;;18.10;;
26014;SDS011;13793;55.388;37.844;2024-02-21T07:03:11;30.80;;;18.10;;
26014;SDS011;13793;55.388;37.844;2024-02-21T07:05:42;30.70;;;17.87;;
26014;SDS011;13793;55.388;37.844;2024-02-21T07:08:13;31.53;;;17.80;;
26014;SDS011;13793;55.388;37.844;2024-02-21T07:10:44;31.83;;;18.00;;
26014;SDS011;13793;55.388;37.844;2024-02-21T07:13:14;30.13;;;17.53;;
26014;SDS011;13793;55.388;37.844;2024-02-21T07:15:47;26.97;;;17.40;;
26014;SDS011;13793;55.388;37.844;2024-02-21T07:18:18;32.27;;;18.13;;
26014;SDS011;13793;55.388;37.844;2024-02-21T07:20:49;30.13;;;17.70;;
26014;SDS011;13793;55.388;37.844;2024-02-21T07:23:20;28.63;;;17.50;;
26014;SDS011;13793;55.388;37.844;2024-02-21T07:25:52;30.43;;;18.23;;
26014;SDS011;13793;55.388;37.844;2024-02-21T07:28:23;28.57;;;17.20;;
26014;SDS011;13793;55.388;37.844;2024-02-21T07:30:54;26.33;;;17.10;;
26014;SDS011;13793;55.388;37.844;2024-02-21T07:33:25;25.03;;;16.80;;
26014;SDS011;13793;55.388;37.844;2024-02-21T07:35:56;26.87;;;16.43;;
26014;SDS011;13793;55.388;37.844;2024-02-21T07:38:30;26.97;;;15.60;;
26014;SDS011;13793;55.388;37.844;2024-02-21T07:41:01;23.57;;;15.47;;
26014;SDS011;13793;55.388;37.844;2024-02-21T07:43:32;22.77;;;15.40;;
26014;SDS011;13793;55.388;37.844;2024-02-21T07:46:03;22.00;;;15.00;;
26014;SDS011;13793;55.388;37.844;2024-02-21T07:48:34;25.57;;;15.40;;
26014;SDS011;13793;55.388;37.844;2024-02-21T07:51:05;21.00;;;15.00;;
26014;SDS011;13793;55.388;37.844;2024-02-21T07:53:36;22.50;;;15.83;;
26014;SDS011;13793;55.388;37.844;2024-02-21T07:56:10;22.50;;;15.40;;
26014;SDS011;13793;55.388;37.844;2024-02-21T07:58:41;23.87;;;16.10;;
26014;SDS011;13793;55.388;37.844;2024-02-21T08:01:18;25.83;;;16.40;;
26014;SDS011;13793;55.388;37.844;2024-02-21T08:03:51;23.97;;;15.30;;
26014;SDS011;13793;55.388;37.844;2024-02-21T08:06:21;22.53;;;14.77;;
26014;SDS011;13793;55.388;37.844;2024-02-21T08:08:52;23.87;;;15.90;;
26014;SDS011;13793;55.388;37.844;2024-02-21T08:11:22;21.83;;;15.37;;
26014;SDS011;13793;55.388;37.844;2024-02-21T08:13:53;22.97;;;16.10;;
26014;SDS011;13793;55.388;37.844;2024-02-21T08:16:24;21.67;;;14.93;;
26014;SDS011;13793;55.388;37.844;2024-02-21T08:18:54;19.97;;;14.50;;
26014;SDS011;13793;55.388;37.844;2024-02-21T08:21:27;21.70;;;15.07;;
26014;SDS011;13793;55.388;37.844;2024-02-21T08:23:57;21.60;;;15.13;;
26014;SDS011;13793;55.388;37.844;2024-02-21T08:26:28;19.47;;;14.47;;
26014;SDS011;13793;55.388;37.844;2024-02-21T08:28:59;19.07;;;14.37;;
26014;SDS011;13793;55.388;37.844;2024-02-21T08:31:30;20.27;;;15.03;;
26014;SDS011;13793;55.388;37.844;2024-02-21T08:34:02;20.87;;;14.83;;
26014;SDS011;13793;55.388;37.844;2024-02-21T08:36:33;21.10;;;14.67;;
26014;SDS011;13793;55.388;37.844;2024-02-21T08:39:04;20.90;;;14.67;;
26014;SDS011;13793;55.388;37.844;2024-02-21T08:41:37;20.87;;;15.27;;
26014;SDS011;13793;55.388;37.844;2024-02-21T08:44:08;22.80;;;14.43;;
26014;SDS011;13793;55.388;37.844;2024-02-21T08:46:39;21.73;;;14.63;;
26014;SDS011;13793;55.388;37.844;2024-02-21T08:49:10;22.47;;;15.50;;
26014;SDS011;13793;55.388;37.844;2024-02-21T08:51:41;20.83;;;14.80;;
26014;SDS011;13793;55.388;37.844;2024-02-21T08:54:12;23.57;;;15.90;;
26014;SDS011;13793;55.388;37.844;2024-02-21T08:56:43;23.37;;;15.17;;
26014;SDS011;13793;55.388;37.844;2024-02-21T08:59:13;23.40;;;15.20;;
26014;SDS011;13793;55.388;37.844;2024-02-21T09:01:44;22.13;;;14.10;;
26014;SDS011;13793;55.388;37.844;2024-02-21T09:04:15;21.93;;;14.37;;
26014;SDS011;13793;55.388;37.844;2024-02-21T09:06:46;23.93;;;14.50;;
26014;SDS011;13793;55.388;37.844;2024-02-21T09:09:16;21.77;;;14.97;;
26014;SDS011;13793;55.388;37.844;2024-02-21T09:11:48;19.93;;;13.30;;
26014;SDS011;13793;55.388;37.844;2024-02-21T09:14:19;20.10;;;13.37;;
26014;SDS011;13793;55.388;37.844;2024-02-21T09:16:49;21.37;;;14.10;;
26014;SDS011;13793;55.388;37.844;2024-02-21T09:19:20;23.40;;;14.13;;
26014;SDS011;13793;55.388;37.844;2024-02-21T09:21:51;20.30;;;13.47;;
26014;SDS011;13793;55.388;37.844;2024-02-21T09:24:22;21.27;;;14.33;;
26014;SDS011;13793;55.388;37.844;2024-02-21T09:26:55;21.17;;;14.27;;
26014;SDS011;13793;55.388;37.844;2024-02-21T09:29:26;21.20;;;14.83;;
26014;SDS011;13793;55.388;37.844;2024-02-21T09:31:57;18.97;;;12.70;;
26014;SDS011;13793;55.388;37.844;2024-02-21T09:34:28;19.77;;;12.43;;
26014;SDS011;13793;55.388;37.844;2024-02-21T09:37:12;20.60;;;13.57;;
26014;SDS011;13793;55.388;37.844;2024-02-21T09:39:43;22.67;;;14.30;;
26014;SDS011;13793;55.388;37.844;2024-02-21T09:42:14;19.83;;;13.03;;
26014;SDS011;13793;55.388;37.844;2024-02-21T09:44:47;21.50;;;13.47;;
26014;SDS011;13793;55.388;37.844;2024-02-21T09:47:26;19.43;;;13.43;;
26014;SDS011;13793;55.388;37.844;2024-02-21T09:50:14;23.43;;;13.57;;
26014;SDS011;13793;55.388;37.844;2024-02-21T09:52:46;20.53;;;13.73;;
26014;SDS011;13793;55.388;37.844;2024-02-21T09:55:17;21.60;;;13.37;;
26014;SDS011;13793;55.388;37.844;2024-02-21T09:57:48;22.03;;;14.03;;
26014;SDS011;13793;55.388;37.844;2024-02-21T10:00:20;23.93;;;14.53;;
26014;SDS011;13793;55.388;37.844;2024-02-21T10:02:51;19.53;;;13.13;;
26014;SDS011;13793;55.388;37.844;2024-02-21T10:05:22;20.30;;;13.87;;
26014;SDS011;13793;55.388;37.844;2024-02-21T10:07:53;20.77;;;13.67;;
26014;SDS011;13793;55.388;37.844;2024-02-21T10:10:25;20.77;;;13.53;;
26014;SDS011;13793;55.388;37.844;2024-02-21T10:12:58;21.97;;;13.47;;
26014;SDS011;13793;55.388;37.844;2024-02-21T10:15:29;20.03;;;13.43;;
26014;SDS011;13793;55.388;37.844;2024-02-21T10:18:01;19.93;;;13.47;;
26014;SDS011;13793;55.388;37.844;2024-02-21T10:20:36;18.40;;;12.70;;
26014;SDS011;13793;55.388;37.844;2024-02-21T10:23:08;21.63;;;13.63;;
26014;SDS011;13793;55.388;37.844;2024-02-21T10:25:39;21.13;;;13.50;;
26014;SDS011;13793;55.388;37.844;2024-02-21T10:28:14;19.73;;;13.17;;
26014;SDS011;13793;55.388;37.844;2024-02-21T10:30:50;21.03;;;14.20;;
26014;SDS011;13793;55.388;37.844;2024-02-21T10:33:20;20.50;;;13.73;;
26014;SDS011;13793;55.388;37.844;2024-02-21T10:35:53;20.67;;;12.80;;
26014;SDS011;13793;55.388;37.844;2024-02-21T10:38:24;19.97;;;13.17;;
26014;SDS011;13793;55.388;37.844;2024-02-21T10:40:55;18.93;;;12.67;;
26014;SDS011;13793;55.388;37.844;2024-02-21T10:43:27;18.73;;;12.80;;
26014;SDS011;13793;55.388;37.844;2024-02-21T10:45:58;19.63;;;13.17;;
26014;SDS011;13793;55.388;37.844;2024-02-21T10:48:36;18.97;;;13.63;;
26014;SDS011;13793;55.388;37.844;2024-02-21T10:51:17;22.10;;;13.40;;
26014;SDS011;13793;55.388;37.844;2024-02-21T10:54:02;20.27;;;13.43;;
26014;SDS011;13793;55.388;37.844;2024-02-21T10:56:38;23.70;;;14.10;;
26014;SDS011;13793;55.388;37.844;2024-02-21T10:59:10;20.03;;;13.23;;
26014;SDS011;13793;55.388;37.844;2024-02-21T11:01:42;22.40;;;13.70;;
26014;SDS011;13793;55.388;37.844;2024-02-21T11:04:13;21.70;;;14.27;;
26014;SDS011;13793;55.388;37.844;2024-02-21T11:06:44;21.13;;;13.60;;
26014;SDS011;13793;55.388;37.844;2024-02-21T11:09:15;21.50;;;13.80;;
26014;SDS011;13793;55.388;37.844;2024-02-21T11:11:46;20.17;;;13.57;;
26014;SDS011;13793;55.388;37.844;2024-02-21T11:16:49;22.50;;;13.93;;
26014;SDS011;13793;55.388;37.844;2024-02-21T11:19:28;20.17;;;13.20;;
26014;SDS011;13793;55.388;37.844;2024-02-21T11:21:59;21.80;;;14.37;;
26014;SDS011;13793;55.388;37.844;2024-02-21T11:24:33;21.70;;;13.60;;
26014;SDS011;13793;55.388;37.844;2024-02-21T11:27:12;20.40;;;13.40;;
26014;SDS011;13793;55.388;37.844;2024-02-21T11:29:48;20.83;;;13.30;;
26014;SDS011;13793;55.388;37.844;2024-02-21T11:32:22;19.63;;;13.00;;
26014;SDS011;13793;55.388;37.844;2024-02-21T11:34:57;22.20;;;14.37;;
26014;SDS011;13793;55.388;37.844;2024-02-21T11:37:32;18.40;;;13.30;;
26014;SDS011;13793;55.388;37.844;2024-02-21T11:40:06;17.80;;;12.40;;
26014;SDS011;13793;55.388;37.844;2024-02-21T11:42:39;21.47;;;13.83;;
26014;SDS011;13793;55.388;37.844;2024-02-21T11:45:09;19.50;;;13.00;;
26014;SDS011;13793;55.388;37.844;2024-02-21T11:47:42;17.93;;;12.23;;
26014;SDS011;13793;55.388;37.844;2024-02-21T11:50:12;21.73;;;13.20;;
26014;SDS011;13793;55.388;37.844;2024-02-21T11:52:43;20.13;;;13.17;;
26014;SDS011;13793;55.388;37.844;2024-02-21T11:55:14;21.13;;;12.70;;
26014;SDS011;13793;55.388;37.844;2024-02-21T11:57:45;19.90;;;12.90;;
26014;SDS011;13793;55.388;37.844;2024-02-21T12:00:18;21.60;;;13.73;;
26014;SDS011;13793;55.388;37.844;2024-02-21T12:02:49;20.57;;;13.03;;
26014;SDS011;13793;55.388;37.844;2024-02-21T12:05:21;21.63;;;13.17;;
26014;SDS011;13793;55.388;37.844;2024-02-21T12:07:56;21.10;;;12.90;;
26014;SDS011;13793;55.388;37.844;2024-02-21T12:10:28;17.90;;;13.20;;
26014;SDS011;13793;55.388;37.844;2024-02-21T12:13:10;19.53;;;13.03;;
26014;SDS011;13793;55.388;37.844;2024-02-21T12:15:41;19.27;;;13.20;;
26014;SDS011;13793;55.388;37.844;2024-02-21T12:18:11;18.97;;;12.73;;
26014;SDS011;13793;55.388;37.844;2024-02-21T12:20:42;18.63;;;13.33;;
26014;SDS011;13793;55.388;37.844;2024-02-21T12:23:14;20.17;;;12.93;;
26014;SDS011;13793;55.388;37.844;2024-02-21T12:25:45;21.50;;;12.63;;
26014;SDS011;13793;55.388;37.844;2024-02-21T12:28:16;19.33;;;13.27;;
26014;SDS011;13793;55.388;37.844;2024-02-21T15:41:51;32.47;;;16.10;;
26014;SDS011;13793;55.388;37.844;2024-02-21T15:44:23;30.32;;;16.70;;
26014;SDS011;13793;55.388;37.844;2024-02-21T15:46:55;31.73;;;17.00;;
26014;SDS011;13793;55.388;37.844;2024-02-21T15:49:25;31.20;;;16.27;;
26014;SDS011;13793;55.388;37.844;2024-02-21T15:51:56;29.20;;;15.70;;
26014;SDS011;13793;55.388;37.844;2024-02-21T15:54:27;27.27;;;15.50;;
26014;SDS011;13793;55.388;37.844;2024-02-21T15:56:58;28.63;;;16.30;;
26014;SDS011;13793;55.388;37.844;2024-02-21T15:59:28;34.03;;;18.03;;
26014;SDS011;13793;55.388;37.844;2024-02-21T16:02:00;30.73;;;16.63;;
26014;SDS011;13793;55.388;37.844;2024-02-21T16:04:31;29.70;;;17.03;;
26014;SDS011;13793;55.388;37.844;2024-02-21T16:07:02;34.37;;;17.80;;
26014;SDS011;13793;55.388;37.844;2024-02-21T16:09:33;32.33;;;16.77;;
26014;SDS011;13793;55.388;37.844;2024-02-21T16:12:04;30.30;;;17.07;;
26014;SDS011;13793;55.388;37.844;2024-02-21T16:14:36;31.83;;;17.13;;
26014;SDS011;13793;55.388;37.844;2024-02-21T16:17:08;31.53;;;17.83;;
26014;SDS011;13793;55.388;37.844;2024-02-21T16:19:39;30.37;;;16.43;;
26014;SDS011;13793;55.388;37.844;2024-02-21T16:22:09;33.13;;;18.03;;
26014;SDS011;13793;55.388;37.844;2024-02-21T16:24:41;30.90;;;17.93;;
26014;SDS011;13793;55.388;37.844;2024-02-21T16:27:12;32.03;;;16.80;;
26014;SDS011;13793;55.388;37.844;2024-02-21T16:29:43;31.60;;;17.50;;
26014;SDS011;13793;55.388;37.844;2024-02-21T16:32:15;33.73;;;18.40;;
26014;SDS011;13793;55.388;37.844;2024-02-21T16:34:46;31.80;;;17.27;;
26014;SDS011;13793;55.388;37.844;2024-02-21T16:37:17;29.63;;;17.47;;
26014;SDS011;13793;55.388;37.844;2024-02-21T16:39:50;30.70;;;17.43;;
26014;SDS011;13793;55.388;37.844;2024-02-21T16:42:21;32.57;;;18.07;;
26014;SDS011;13793;55.388;37.844;2024-02-21T16:44:52;33.90;;;18.47;;
26014;SDS011;13793;55.388;37.844;2024-02-21T16:47:23;30.30;;;17.67;;
26014;SDS011;13793;55.388;37.844;2024-02-21T16:49:55;32.20;;;18.27;;
26014;SDS011;13793;55.388;37.844;2024-02-21T16:52:38;34.00;;;17.97;;
26014;SDS011;13793;55.388;37.844;2024-02-21T16:55:09;33.13;;;17.80;;
26014;SDS011;13793;55.388;37.844;2024-02-21T16:57:40;36.47;;;18.90;;
26014;SDS011;13793;55.388;37.844;2024-02-21T17:00:12;34.93;;;19.43;;
26014;SDS011;13793;55.388;37.844;2024-02-21T17:02:56;35.50;;;19.10;;
26014;SDS011;13793;55.388;37.844;2024-02-21T17:05:27;35.10;;;18.47;;
26014;SDS011;13793;55.388;37.844;2024-02-21T17:07:58;37.00;;;20.27;;
26014;SDS011;13793;55.388;37.844;2024-02-21T17:10:29;34.57;;;19.20;;
26014;SDS011;13793;55.388;37.844;2024-02-21T17:13:00;37.80;;;21.17;;
26014;SDS011;13793;55.388;37.844;2024-02-21T17:15:31;40.70;;;20.33;;
26014;SDS011;13793;55.388;37.844;2024-02-21T17:18:02;37.73;;;18.93;;
26014;SDS011;13793;55.388;37.844;2024-02-21T17:20:33;40.27;;;20.57;;
26014;SDS011;13793;55.388;37.844;2024-02-21T17:23:04;37.10;;;19.77;;
26014;SDS011;13793;55.388;37.844;2024-02-21T17:25:34;39.40;;;20.70;;
26014;SDS011;13793;55.388;37.844;2024-02-21T17:28:05;38.50;;;20.60;;
26014;SDS011;13793;55.388;37.844;2024-02-21T17:30:36;40.10;;;20.63;;
26014;SDS011;13793;55.388;37.844;2024-02-21T17:33:07;37.20;;;18.73;;
26014;SDS011;13793;55.388;37.844;2024-02-21T17:35:38;39.83;;;20.27;;
26014;SDS011;13793;55.388;37.844;2024-02-21T17:38:10;38.03;;;20.53;;
26014;SDS011;13793;55.388;37.844;2024-02-21T17:40:42;38.17;;;21.93;;
26014;SDS011;13793;55.388;37.844;2024-02-21T17:43:13;37.23;;;19.93;;
26014;SDS011;13793;55.388;37.844;2024-02-21T17:45:44;37.00;;;20.70;;
26014;SDS011;13793;55.388;37.844;2024-02-21T17:48:17;43.37;;;21.87;;
26014;SDS011;13793;55.388;37.844;2024-02-21T17:50:47;37.07;;;20.77;;